createdAt,value
2017-12-26T12:24:01.864Z,992.7
2017-12-26T12:34:17.175Z,992.9
2017-12-26T12:44:32.591Z,992.9
2017-12-26T12:54:47.059Z,992.9
2017-12-26T13:05:02.010Z,992.8
2017-12-26T13:15:16.536Z,992.7
2017-12-26T13:25:31.241Z,992.8
2017-12-26T13:35:45.697Z,992.6
2017-12-26T13:46:00.359Z,992.6
2017-12-26T13:56:14.781Z,992.5
2017-12-26T14:06:29.185Z,992.7
2017-12-26T14:16:43.694Z,992.7
2017-12-26T14:26:57.756Z,992.7
2017-12-26T14:37:11.708Z,992.8
2017-12-26T14:47:26.367Z,992.8
2017-12-26T14:57:41.758Z,992.9
2017-12-26T15:07:55.978Z,992.9
2017-12-26T15:18:10.703Z,992.9
2017-12-26T15:28:25.139Z,993
2017-12-26T15:38:40.647Z,992.9
2017-12-26T15:48:54.890Z,993
2017-12-26T15:59:10.564Z,992.9
2017-12-26T16:09:24.731Z,992.8
2017-12-26T16:19:38.706Z,992.8
2017-12-26T16:29:52.892Z,992.8
2017-12-26T16:40:08.347Z,992.9
2017-12-26T16:50:23.600Z,992.8
2017-12-26T17:00:37.278Z,992.8
2017-12-26T17:10:51.278Z,992.9
2017-12-26T17:21:06.801Z,992.8
2017-12-26T17:31:21.821Z,992.7
2017-12-26T17:41:37.327Z,992.7
2017-12-26T17:51:52.345Z,992.7
2017-12-26T18:02:06.078Z,992.7
2017-12-26T18:12:20.120Z,992.6
2017-12-26T18:22:34.750Z,992.4
2017-12-26T18:32:50.151Z,992.3
2017-12-26T18:43:05.746Z,992.1
2017-12-26T18:53:19.655Z,992
2017-12-26T19:03:34.643Z,991.9
2017-12-26T19:13:49.341Z,991.8
2017-12-26T19:24:04.943Z,991.6
2017-12-26T19:34:19.066Z,991.6
2017-12-26T19:44:33.019Z,991.5
2017-12-26T19:54:47.192Z,991.3
2017-12-26T20:05:01.586Z,991.1
2017-12-26T20:15:16.685Z,990.9
2017-12-26T20:25:31.316Z,990.8
2017-12-26T20:35:46.569Z,990.6
2017-12-26T20:46:01.676Z,990.6
2017-12-26T20:56:17.140Z,990.4
2017-12-26T21:06:31.270Z,990.1
2017-12-26T21:16:45.110Z,989.9
2017-12-26T21:26:59.872Z,989.8
2017-12-26T21:37:15.015Z,989.7
2017-12-26T21:47:29.159Z,989.6
2017-12-26T21:57:42.975Z,989.4
2017-12-26T22:07:57.626Z,989.2
2017-12-26T22:18:12.339Z,989.1
2017-12-26T22:28:27.017Z,989
2017-12-26T22:38:41.264Z,988.9
2017-12-26T22:48:55.933Z,988.6
2017-12-26T22:59:10.902Z,988.5
2017-12-26T23:09:24.876Z,988.2
2017-12-26T23:19:39.879Z,988
2017-12-26T23:29:53.720Z,987.7
2017-12-26T23:40:08.317Z,987.4
2017-12-26T23:50:23.166Z,987.2
